sensor_id;sensor_type;location;lat;lon;timestamp;temperature;humidity
71088;SHT31;58747;50.674;4.616;2022-09-01T00:01:09;18.26;64.38
71088;SHT31;58747;50.674;4.616;2022-09-01T00:03:35;18.22;64.22
71088;SHT31;58747;50.674;4.616;2022-09-01T00:06:00;18.15;64.44
71088;SHT31;58747;50.674;4.616;2022-09-01T00:08:28;18.11;64.73
71088;SHT31;58747;50.674;4.616;2022-09-01T00:10:53;18.08;64.61
71088;SHT31;58747;50.674;4.616;2022-09-01T00:13:19;18.01;64.87
71088;SHT31;58747;50.674;4.616;2022-09-01T00:15:44;17.98;64.98
71088;SHT31;58747;50.674;4.616;2022-09-01T00:18:10;17.97;64.82
71088;SHT31;58747;50.674;4.616;2022-09-01T00:20:36;18.00;65.21
71088;SHT31;58747;50.674;4.616;2022-09-01T00:23:01;17.98;64.66
71088;SHT31;58747;50.674;4.616;2022-09-01T00:25:27;18.00;64.56
71088;SHT31;58747;50.674;4.616;2022-09-01T00:27:53;17.92;65.24
71088;SHT31;58747;50.674;4.616;2022-09-01T00:30:19;17.87;65.18
71088;SHT31;58747;50.674;4.616;2022-09-01T00:32:44;17.91;64.76
71088;SHT31;58747;50.674;4.616;2022-09-01T00:35:16;17.87;65.40
71088;SHT31;58747;50.674;4.616;2022-09-01T00:37:42;17.78;65.77
71088;SHT31;58747;50.674;4.616;2022-09-01T00:40:08;17.75;65.48
71088;SHT31;58747;50.674;4.616;2022-09-01T00:42:36;17.78;65.51
71088;SHT31;58747;50.674;4.616;2022-09-01T00:45:03;17.75;65.14
71088;SHT31;58747;50.674;4.616;2022-09-01T00:47:28;17.74;65.64
71088;SHT31;58747;50.674;4.616;2022-09-01T00:49:53;17.66;66.02
71088;SHT31;58747;50.674;4.616;2022-09-01T00:52:26;17.60;66.06
71088;SHT31;58747;50.674;4.616;2022-09-01T00:54:56;17.57;65.90
71088;SHT31;58747;50.674;4.616;2022-09-01T00:57:23;17.54;65.86
71088;SHT31;58747;50.674;4.616;2022-09-01T00:59:53;17.49;66.39
71088;SHT31;58747;50.674;4.616;2022-09-01T01:02:21;17.51;66.29
71088;SHT31;58747;50.674;4.616;2022-09-01T01:04:46;17.49;65.63
71088;SHT31;58747;50.674;4.616;2022-09-01T01:07:13;17.49;65.87
71088;SHT31;58747;50.674;4.616;2022-09-01T01:09:41;17.49;66.62
71088;SHT31;58747;50.674;4.616;2022-09-01T01:12:08;17.50;66.46
71088;SHT31;58747;50.674;4.616;2022-09-01T01:14:37;17.46;66.42
71088;SHT31;58747;50.674;4.616;2022-09-01T01:17:04;17.46;66.51
71088;SHT31;58747;50.674;4.616;2022-09-01T01:19:49;17.47;65.95
71088;SHT31;58747;50.674;4.616;2022-09-01T01:25:50;17.46;66.24
71088;SHT31;58747;50.674;4.616;2022-09-01T01:28:28;17.46;66.05
71088;SHT31;58747;50.674;4.616;2022-09-01T01:31:04;17.37;66.53
71088;SHT31;58747;50.674;4.616;2022-09-01T01:33:36;17.30;66.76
71088;SHT31;58747;50.674;4.616;2022-09-01T01:36:15;17.29;66.72
71088;SHT31;58747;50.674;4.616;2022-09-01T01:38:43;17.20;66.90
71088;SHT31;58747;50.674;4.616;2022-09-01T01:41:11;17.15;66.83
71088;SHT31;58747;50.674;4.616;2022-09-01T01:43:38;17.12;67.18
71088;SHT31;58747;50.674;4.616;2022-09-01T01:46:06;17.06;67.07
71088;SHT31;58747;50.674;4.616;2022-09-01T01:48:32;17.01;66.64
71088;SHT31;58747;50.674;4.616;2022-09-01T01:50:59;16.96;67.28
71088;SHT31;58747;50.674;4.616;2022-09-01T01:53:26;16.95;66.67
71088;SHT31;58747;50.674;4.616;2022-09-01T01:55:51;16.91;67.38
71088;SHT31;58747;50.674;4.616;2022-09-01T01:58:18;16.84;67.39
71088;SHT31;58747;50.674;4.616;2022-09-01T02:00:44;16.78;67.24
71088;SHT31;58747;50.674;4.616;2022-09-01T02:03:12;16.72;67.88
71088;SHT31;58747;50.674;4.616;2022-09-01T02:05:41;16.72;67.89
71088;SHT31;58747;50.674;4.616;2022-09-01T02:08:08;16.63;67.97
71088;SHT31;58747;50.674;4.616;2022-09-01T02:10:38;16.58;68.19
71088;SHT31;58747;50.674;4.616;2022-09-01T02:13:05;16.57;68.09
71088;SHT31;58747;50.674;4.616;2022-09-01T02:15:37;16.51;68.20
71088;SHT31;58747;50.674;4.616;2022-09-01T02:18:35;16.55;67.92
71088;SHT31;58747;50.674;4.616;2022-09-01T02:21:07;16.54;67.81
71088;SHT31;58747;50.674;4.616;2022-09-01T02:23:35;16.48;68.22
71088;SHT31;58747;50.674;4.616;2022-09-01T02:26:00;16.45;68.11
71088;SHT31;58747;50.674;4.616;2022-09-01T02:28:26;16.45;67.93
71088;SHT31;58747;50.674;4.616;2022-09-01T02:30:53;16.57;67.44
71088;SHT31;58747;50.674;4.616;2022-09-01T02:33:22;16.63;66.91
71088;SHT31;58747;50.674;4.616;2022-09-01T02:35:54;16.63;67.49
71088;SHT31;58747;50.674;4.616;2022-09-01T02:38:21;16.63;66.88
71088;SHT31;58747;50.674;4.616;2022-09-01T02:40:48;16.65;67.24
71088;SHT31;58747;50.674;4.616;2022-09-01T02:43:15;16.69;66.51
71088;SHT31;58747;50.674;4.616;2022-09-01T02:45:49;16.72;66.45
71088;SHT31;58747;50.674;4.616;2022-09-01T02:48:31;16.72;66.37
71088;SHT31;58747;50.674;4.616;2022-09-01T02:51:02;16.64;66.82
71088;SHT31;58747;50.674;4.616;2022-09-01T02:53:29;16.61;66.90
71088;SHT31;58747;50.674;4.616;2022-09-01T02:55:55;16.60;67.35
71088;SHT31;58747;50.674;4.616;2022-09-01T02:58:24;16.55;67.07
71088;SHT31;58747;50.674;4.616;2022-09-01T03:00:54;16.48;67.71
71088;SHT31;58747;50.674;4.616;2022-09-01T03:03:20;16.41;67.79
71088;SHT31;58747;50.674;4.616;2022-09-01T03:05:46;16.47;66.92
71088;SHT31;58747;50.674;4.616;2022-09-01T03:08:12;16.38;67.32
71088;SHT31;58747;50.674;4.616;2022-09-01T03:10:42;16.37;67.38
71088;SHT31;58747;50.674;4.616;2022-09-01T03:13:13;16.36;67.24
71088;SHT31;58747;50.674;4.616;2022-09-01T03:15:39;16.34;67.23
71088;SHT31;58747;50.674;4.616;2022-09-01T03:18:07;16.37;67.84
71088;SHT31;58747;50.674;4.616;2022-09-01T03:20:35;16.40;66.83
71088;SHT31;58747;50.674;4.616;2022-09-01T03:23:05;16.43;67.52
71088;SHT31;58747;50.674;4.616;2022-09-01T03:25:33;16.41;67.40
71088;SHT31;58747;50.674;4.616;2022-09-01T03:27:59;16.41;67.58
71088;SHT31;58747;50.674;4.616;2022-09-01T03:30:26;16.44;67.53
71088;SHT31;58747;50.674;4.616;2022-09-01T03:32:53;16.41;67.47
71088;SHT31;58747;50.674;4.616;2022-09-01T03:35:19;16.37;67.92
71088;SHT31;58747;50.674;4.616;2022-09-01T03:37:44;16.37;67.71
71088;SHT31;58747;50.674;4.616;2022-09-01T03:40:11;16.34;67.81
71088;SHT31;58747;50.674;4.616;2022-09-01T03:42:38;16.30;66.65
71088;SHT31;58747;50.674;4.616;2022-09-01T03:45:04;16.28;67.24
71088;SHT31;58747;50.674;4.616;2022-09-01T03:47:35;16.27;67.00
71088;SHT31;58747;50.674;4.616;2022-09-01T03:50:11;16.30;67.32
71088;SHT31;58747;50.674;4.616;2022-09-01T03:52:51;16.27;67.43
71088;SHT31;58747;50.674;4.616;2022-09-01T03:55:20;16.26;67.24
71088;SHT31;58747;50.674;4.616;2022-09-01T03:57:52;16.26;67.52
71088;SHT31;58747;50.674;4.616;2022-09-01T04:00:19;16.17;67.48
71088;SHT31;58747;50.674;4.616;2022-09-01T04:02:52;16.12;67.58
71088;SHT31;58747;50.674;4.616;2022-09-01T04:05:23;16.05;67.69
71088;SHT31;58747;50.674;4.616;2022-09-01T04:07:54;16.05;67.86
71088;SHT31;58747;50.674;4.616;2022-09-01T04:10:20;15.97;68.26
71088;SHT31;58747;50.674;4.616;2022-09-01T04:12:47;15.92;68.46
71088;SHT31;58747;50.674;4.616;2022-09-01T04:15:13;15.89;68.62
71088;SHT31;58747;50.674;4.616;2022-09-01T04:17:41;15.79;69.23
71088;SHT31;58747;50.674;4.616;2022-09-01T04:20:25;15.73;69.69
71088;SHT31;58747;50.674;4.616;2022-09-01T04:22:50;15.68;70.15
71088;SHT31;58747;50.674;4.616;2022-09-01T04:25:17;15.62;70.40
71088;SHT31;58747;50.674;4.616;2022-09-01T04:27:48;15.55;70.64
71088;SHT31;58747;50.674;4.616;2022-09-01T04:30:14;15.52;70.80
71088;SHT31;58747;50.674;4.616;2022-09-01T04:32:39;15.48;71.13
71088;SHT31;58747;50.674;4.616;2022-09-01T04:35:06;15.39;71.14
71088;SHT31;58747;50.674;4.616;2022-09-01T04:37:32;15.34;71.33
71088;SHT31;58747;50.674;4.616;2022-09-01T04:40:03;15.31;71.45
71088;SHT31;58747;50.674;4.616;2022-09-01T04:42:29;15.28;71.86
71088;SHT31;58747;50.674;4.616;2022-09-01T04:44:57;15.27;71.83
71088;SHT31;58747;50.674;4.616;2022-09-01T04:47:26;15.26;71.81
71088;SHT31;58747;50.674;4.616;2022-09-01T04:49:55;15.14;72.25
71088;SHT31;58747;50.674;4.616;2022-09-01T04:52:23;15.18;72.32
71088;SHT31;58747;50.674;4.616;2022-09-01T04:54:49;15.14;72.53
71088;SHT31;58747;50.674;4.616;2022-09-01T04:57:14;15.10;72.56
71088;SHT31;58747;50.674;4.616;2022-09-01T04:59:41;15.10;72.82
71088;SHT31;58747;50.674;4.616;2022-09-01T05:02:07;15.23;74.22
71088;SHT31;58747;50.674;4.616;2022-09-01T05:04:34;15.21;72.53
71088;SHT31;58747;50.674;4.616;2022-09-01T05:07:00;15.17;72.63
71088;SHT31;58747;50.674;4.616;2022-09-01T05:09:35;15.12;72.73
71088;SHT31;58747;50.674;4.616;2022-09-01T05:12:02;15.11;72.93
71088;SHT31;58747;50.674;4.616;2022-09-01T05:14:45;15.10;72.93
71088;SHT31;58747;50.674;4.616;2022-09-01T05:17:13;15.06;73.04
71088;SHT31;58747;50.674;4.616;2022-09-01T05:19:40;15.04;73.27
71088;SHT31;58747;50.674;4.616;2022-09-01T05:22:08;15.12;73.19
71088;SHT31;58747;50.674;4.616;2022-09-01T05:24:35;15.06;73.29
71088;SHT31;58747;50.674;4.616;2022-09-01T05:27:03;15.11;73.22
71088;SHT31;58747;50.674;4.616;2022-09-01T05:29:28;15.08;73.43
71088;SHT31;58747;50.674;4.616;2022-09-01T05:31:54;15.07;73.65
71088;SHT31;58747;50.674;4.616;2022-09-01T05:34:21;15.07;73.13
71088;SHT31;58747;50.674;4.616;2022-09-01T05:36:56;15.14;72.91
71088;SHT31;58747;50.674;4.616;2022-09-01T05:39:24;15.20;72.87
71088;SHT31;58747;50.674;4.616;2022-09-01T05:41:50;15.17;72.86
71088;SHT31;58747;50.674;4.616;2022-09-01T05:44:18;15.18;73.41
71088;SHT31;58747;50.674;4.616;2022-09-01T05:46:46;15.24;72.79
71088;SHT31;58747;50.674;4.616;2022-09-01T05:49:13;15.23;73.20
71088;SHT31;58747;50.674;4.616;2022-09-01T05:51:42;15.66;72.74
71088;SHT31;58747;50.674;4.616;2022-09-01T05:54:09;15.62;72.54
71088;SHT31;58747;50.674;4.616;2022-09-01T05:56:36;15.61;72.55
71088;SHT31;58747;50.674;4.616;2022-09-01T05:59:05;15.58;72.61
71088;SHT31;58747;50.674;4.616;2022-09-01T06:01:30;15.57;72.38
71088;SHT31;58747;50.674;4.616;2022-09-01T06:03:59;15.47;72.65
71088;SHT31;58747;50.674;4.616;2022-09-01T06:06:35;15.54;71.93
71088;SHT31;58747;50.674;4.616;2022-09-01T06:09:03;15.48;72.35
71088;SHT31;58747;50.674;4.616;2022-09-01T06:11:28;15.51;72.14
71088;SHT31;58747;50.674;4.616;2022-09-01T06:13:55;15.47;72.47
71088;SHT31;58747;50.674;4.616;2022-09-01T06:16:23;15.49;72.58
71088;SHT31;58747;50.674;4.616;2022-09-01T06:18:51;15.52;72.35
71088;SHT31;58747;50.674;4.616;2022-09-01T06:21:19;15.57;72.23
71088;SHT31;58747;50.674;4.616;2022-09-01T06:23:45;15.59;72.34
71088;SHT31;58747;50.674;4.616;2022-09-01T06:26:19;15.61;72.54
71088;SHT31;58747;50.674;4.616;2022-09-01T06:28:45;15.93;74.11
71088;SHT31;58747;50.674;4.616;2022-09-01T06:31:13;16.07;72.06
71088;SHT31;58747;50.674;4.616;2022-09-01T06:33:39;16.02;71.86
71088;SHT31;58747;50.674;4.616;2022-09-01T06:36:05;16.05;71.66
71088;SHT31;58747;50.674;4.616;2022-09-01T06:38:33;16.00;71.79
71088;SHT31;58747;50.674;4.616;2022-09-01T06:41:05;16.06;71.71
71088;SHT31;58747;50.674;4.616;2022-09-01T06:43:39;16.13;71.32
71088;SHT31;58747;50.674;4.616;2022-09-01T06:46:07;16.21;71.07
71088;SHT31;58747;50.674;4.616;2022-09-01T06:48:35;16.23;71.28
71088;SHT31;58747;50.674;4.616;2022-09-01T06:51:02;16.34;70.84
71088;SHT31;58747;50.674;4.616;2022-09-01T06:53:30;16.41;70.81
71088;SHT31;58747;50.674;4.616;2022-09-01T06:55:58;16.47;70.77
71088;SHT31;58747;50.674;4.616;2022-09-01T06:58:24;16.54;70.46
71088;SHT31;58747;50.674;4.616;2022-09-01T07:00:50;16.61;70.42
71088;SHT31;58747;50.674;4.616;2022-09-01T07:03:16;16.75;69.96
71088;SHT31;58747;50.674;4.616;2022-09-01T07:05:46;16.82;69.95
71088;SHT31;58747;50.674;4.616;2022-09-01T07:08:15;16.86;69.67
71088;SHT31;58747;50.674;4.616;2022-09-01T07:10:49;16.98;69.65
71088;SHT31;58747;50.674;4.616;2022-09-01T07:13:20;16.99;70.15
71088;SHT31;58747;50.674;4.616;2022-09-01T07:33:20;17.82;67.21
71088;SHT31;58747;50.674;4.616;2022-09-01T07:35:57;17.88;66.88
71088;SHT31;58747;50.674;4.616;2022-09-01T07:39:07;17.97;66.46
71088;SHT31;58747;50.674;4.616;2022-09-01T07:41:45;18.04;66.51
71088;SHT31;58747;50.674;4.616;2022-09-01T07:44:29;18.13;66.32
71088;SHT31;58747;50.674;4.616;2022-09-01T07:47:03;18.21;66.22
71088;SHT31;58747;50.674;4.616;2022-09-01T07:49:47;18.31;65.92
71088;SHT31;58747;50.674;4.616;2022-09-01T07:52:41;18.45;65.61
71088;SHT31;58747;50.674;4.616;2022-09-01T07:55:28;18.60;64.60
71088;SHT31;58747;50.674;4.616;2022-09-01T07:57:55;18.74;63.94
71088;SHT31;58747;50.674;4.616;2022-09-01T08:00:21;18.88;63.17
71088;SHT31;58747;50.674;4.616;2022-09-01T08:02:47;18.96;62.53
71088;SHT31;58747;50.674;4.616;2022-09-01T08:05:15;19.07;62.01
71088;SHT31;58747;50.674;4.616;2022-09-01T08:07:43;19.10;63.16
71088;SHT31;58747;50.674;4.616;2022-09-01T08:10:11;19.21;62.24
71088;SHT31;58747;50.674;4.616;2022-09-01T08:12:37;19.28;61.84
71088;SHT31;58747;50.674;4.616;2022-09-01T08:15:07;19.41;61.76
71088;SHT31;58747;50.674;4.616;2022-09-01T08:17:34;19.46;61.34
71088;SHT31;58747;50.674;4.616;2022-09-01T08:20:01;19.56;61.52
71088;SHT31;58747;50.674;4.616;2022-09-01T08:22:26;19.59;61.43
71088;SHT31;58747;50.674;4.616;2022-09-01T08:24:52;19.66;60.55
71088;SHT31;58747;50.674;4.616;2022-09-01T08:27:18;19.77;61.37
71088;SHT31;58747;50.674;4.616;2022-09-01T08:29:43;19.85;59.98
71088;SHT31;58747;50.674;4.616;2022-09-01T08:32:09;19.94;59.82
71088;SHT31;58747;50.674;4.616;2022-09-01T08:34:35;19.96;59.15
71088;SHT31;58747;50.674;4.616;2022-09-01T08:37:02;20.04;59.03
71088;SHT31;58747;50.674;4.616;2022-09-01T08:39:27;20.18;58.81
71088;SHT31;58747;50.674;4.616;2022-09-01T08:42:35;20.33;58.27
71088;SHT31;58747;50.674;4.616;2022-09-01T08:45:22;20.43;57.93
71088;SHT31;58747;50.674;4.616;2022-09-01T08:47:52;20.58;58.55
71088;SHT31;58747;50.674;4.616;2022-09-01T08:50:20;20.75;57.92
71088;SHT31;58747;50.674;4.616;2022-09-01T08:53:37;21.02;56.88
71088;SHT31;58747;50.674;4.616;2022-09-01T08:55:49;21.19;57.05
71088;SHT31;58747;50.674;4.616;2022-09-01T08:58:16;21.26;56.05
71088;SHT31;58747;50.674;4.616;2022-09-01T09:00:44;21.34;55.41
71088;SHT31;58747;50.674;4.616;2022-09-01T09:16:57;22.50;52.97
71088;SHT31;58747;50.674;4.616;2022-09-01T09:21:50;22.87;51.71
71088;SHT31;58747;50.674;4.616;2022-09-01T09:24:29;23.01;50.89
71088;SHT31;58747;50.674;4.616;2022-09-01T09:27:22;23.21;50.62
71088;SHT31;58747;50.674;4.616;2022-09-01T09:29:50;23.34;50.56
71088;SHT31;58747;50.674;4.616;2022-09-01T09:32:18;23.51;50.07
71088;SHT31;58747;50.674;4.616;2022-09-01T09:34:44;23.44;49.28
71088;SHT31;58747;50.674;4.616;2022-09-01T09:39:43;23.76;47.57
71088;SHT31;58747;50.674;4.616;2022-09-01T09:42:11;23.93;46.81
71088;SHT31;58747;50.674;4.616;2022-09-01T09:44:47;24.09;47.41
71088;SHT31;58747;50.674;4.616;2022-09-01T09:47:42;24.33;45.67
71088;SHT31;58747;50.674;4.616;2022-09-01T09:52:42;24.72;44.26
71088;SHT31;58747;50.674;4.616;2022-09-01T09:55:27;24.93;43.08
71088;SHT31;58747;50.674;4.616;2022-09-01T09:57:57;24.86;43.10
71088;SHT31;58747;50.674;4.616;2022-09-01T10:00:27;24.88;42.32
71088;SHT31;58747;50.674;4.616;2022-09-01T10:03:05;25.06;41.31
71088;SHT31;58747;50.674;4.616;2022-09-01T10:05:46;25.31;40.35
71088;SHT31;58747;50.674;4.616;2022-09-01T10:10:50;25.34;40.52
71088;SHT31;58747;50.674;4.616;2022-09-01T10:13:19;25.46;40.72
71088;SHT31;58747;50.674;4.616;2022-09-01T10:15:57;25.46;40.16
71088;SHT31;58747;50.674;4.616;2022-09-01T10:18:38;25.80;39.15
71088;SHT31;58747;50.674;4.616;2022-09-01T10:21:32;25.75;36.86
71088;SHT31;58747;50.674;4.616;2022-09-01T10:23:59;25.97;35.74
71088;SHT31;58747;50.674;4.616;2022-09-01T10:26:37;25.98;36.18
71088;SHT31;58747;50.674;4.616;2022-09-01T10:29:15;26.18;34.89
71088;SHT31;58747;50.674;4.616;2022-09-01T10:31:43;26.19;35.92
71088;SHT31;58747;50.674;4.616;2022-09-01T10:34:12;26.24;35.54
71088;SHT31;58747;50.674;4.616;2022-09-01T10:36:42;26.45;35.51
71088;SHT31;58747;50.674;4.616;2022-09-01T10:39:14;26.57;34.63
71088;SHT31;58747;50.674;4.616;2022-09-01T10:41:56;26.56;34.80
71088;SHT31;58747;50.674;4.616;2022-09-01T10:44:27;26.45;35.13
71088;SHT31;58747;50.674;4.616;2022-09-01T10:47:01;26.55;34.53
71088;SHT31;58747;50.674;4.616;2022-09-01T10:51:53;26.77;34.63
71088;SHT31;58747;50.674;4.616;2022-09-01T11:08:55;27.30;34.32
71088;SHT31;58747;50.674;4.616;2022-09-01T11:11:33;27.52;33.44
71088;SHT31;58747;50.674;4.616;2022-09-01T11:14:00;27.53;33.25
71088;SHT31;58747;50.674;4.616;2022-09-01T11:16:36;27.65;32.83
71088;SHT31;58747;50.674;4.616;2022-09-01T11:22:17;29.10;30.49
71088;SHT31;58747;50.674;4.616;2022-09-01T11:24:51;30.05;28.98
71088;SHT31;58747;50.674;4.616;2022-09-01T11:30:33;32.34;25.58
71088;SHT31;58747;50.674;4.616;2022-09-01T11:33:17;33.11;24.70
71088;SHT31;58747;50.674;4.616;2022-09-01T11:35:46;34.44;23.59
71088;SHT31;58747;50.674;4.616;2022-09-01T11:38:21;34.48;22.88
71088;SHT31;58747;50.674;4.616;2022-09-01T11:40:54;34.45;23.51
71088;SHT31;58747;50.674;4.616;2022-09-01T11:43:20;34.53;23.00
71088;SHT31;58747;50.674;4.616;2022-09-01T11:48:32;35.44;21.91
71088;SHT31;58747;50.674;4.616;2022-09-01T11:51:00;34.10;23.10
71088;SHT31;58747;50.674;4.616;2022-09-01T11:53:26;33.96;23.22
71088;SHT31;58747;50.674;4.616;2022-09-01T11:55:53;35.24;22.56
71088;SHT31;58747;50.674;4.616;2022-09-01T11:58:28;35.48;21.72
71088;SHT31;58747;50.674;4.616;2022-09-01T12:03:44;32.16;25.43
71088;SHT31;58747;50.674;4.616;2022-09-01T12:06:17;30.15;28.31
71088;SHT31;58747;50.674;4.616;2022-09-01T12:08:51;29.26;29.01
71088;SHT31;58747;50.674;4.616;2022-09-01T12:11:20;28.50;30.25
71088;SHT31;58747;50.674;4.616;2022-09-01T12:14:05;28.16;31.58
71088;SHT31;58747;50.674;4.616;2022-09-01T12:16:32;27.69;32.30
71088;SHT31;58747;50.674;4.616;2022-09-01T12:19:00;27.59;32.29
71088;SHT31;58747;50.674;4.616;2022-09-01T12:21:29;27.35;32.36
71088;SHT31;58747;50.674;4.616;2022-09-01T12:24:15;27.16;32.19
71088;SHT31;58747;50.674;4.616;2022-09-01T12:26:41;27.04;32.68
71088;SHT31;58747;50.674;4.616;2022-09-01T12:29:10;27.03;32.85
71088;SHT31;58747;50.674;4.616;2022-09-01T12:31:36;27.04;32.92
71088;SHT31;58747;50.674;4.616;2022-09-01T12:34:01;27.08;33.05
71088;SHT31;58747;50.674;4.616;2022-09-01T12:36:31;27.52;31.88
71088;SHT31;58747;50.674;4.616;2022-09-01T12:39:18;29.61;29.22
71088;SHT31;58747;50.674;4.616;2022-09-01T12:41:47;31.75;26.02
71088;SHT31;58747;50.674;4.616;2022-09-01T12:44:30;33.67;24.95
71088;SHT31;58747;50.674;4.616;2022-09-01T12:46:59;34.35;23.38
71088;SHT31;58747;50.674;4.616;2022-09-01T12:49:42;32.50;25.34
71088;SHT31;58747;50.674;4.616;2022-09-01T12:55:16;32.58;25.33
71088;SHT31;58747;50.674;4.616;2022-09-01T12:57:47;31.83;26.23
71088;SHT31;58747;50.674;4.616;2022-09-01T13:00:30;30.93;27.07
71088;SHT31;58747;50.674;4.616;2022-09-01T13:03:07;29.89;28.78
71088;SHT31;58747;50.674;4.616;2022-09-01T13:05:43;29.16;29.63
71088;SHT31;58747;50.674;4.616;2022-09-01T13:08:22;28.52;30.02
71088;SHT31;58747;50.674;4.616;2022-09-01T13:10:52;28.11;32.18
71088;SHT31;58747;50.674;4.616;2022-09-01T13:13:19;27.79;32.07
71088;SHT31;58747;50.674;4.616;2022-09-01T13:15:53;27.76;31.48
71088;SHT31;58747;50.674;4.616;2022-09-01T13:18:24;27.58;31.85
71088;SHT31;58747;50.674;4.616;2022-09-01T13:20:50;27.52;32.23
71088;SHT31;58747;50.674;4.616;2022-09-01T13:23:17;27.39;32.87
71088;SHT31;58747;50.674;4.616;2022-09-01T13:25:43;27.15;33.15
71088;SHT31;58747;50.674;4.616;2022-09-01T13:28:09;27.14;33.48
71088;SHT31;58747;50.674;4.616;2022-09-01T13:30:36;27.08;33.75
71088;SHT31;58747;50.674;4.616;2022-09-01T13:33:02;27.14;34.69
71088;SHT31;58747;50.674;4.616;2022-09-01T13:35:28;27.16;33.87
71088;SHT31;58747;50.674;4.616;2022-09-01T13:37:53;27.27;33.75
71088;SHT31;58747;50.674;4.616;2022-09-01T13:40:20;27.21;31.77
71088;SHT31;58747;50.674;4.616;2022-09-01T13:42:48;27.05;32.13
71088;SHT31;58747;50.674;4.616;2022-09-01T13:45:14;26.84;32.99
71088;SHT31;58747;50.674;4.616;2022-09-01T13:47:43;26.90;33.38
71088;SHT31;58747;50.674;4.616;2022-09-01T13:50:10;26.83;33.61
71088;SHT31;58747;50.674;4.616;2022-09-01T13:52:43;26.69;32.80
71088;SHT31;58747;50.674;4.616;2022-09-01T13:55:12;26.70;33.30
71088;SHT31;58747;50.674;4.616;2022-09-01T13:57:38;26.60;32.82
71088;SHT31;58747;50.674;4.616;2022-09-01T14:00:06;26.53;33.03
71088;SHT31;58747;50.674;4.616;2022-09-01T14:02:34;26.43;33.69
71088;SHT31;58747;50.674;4.616;2022-09-01T14:05:01;26.43;32.95
71088;SHT31;58747;50.674;4.616;2022-09-01T14:07:26;26.46;33.85
71088;SHT31;58747;50.674;4.616;2022-09-01T14:09:52;26.42;32.55
71088;SHT31;58747;50.674;4.616;2022-09-01T14:12:19;26.47;32.36
71088;SHT31;58747;50.674;4.616;2022-09-01T14:14:44;26.33;32.89
71088;SHT31;58747;50.674;4.616;2022-09-01T14:17:09;26.31;32.79
71088;SHT31;58747;50.674;4.616;2022-09-01T14:19:35;26.35;32.93
71088;SHT31;58747;50.674;4.616;2022-09-01T14:22:01;26.28;33.81
71088;SHT31;58747;50.674;4.616;2022-09-01T14:24:32;26.16;32.97
71088;SHT31;58747;50.674;4.616;2022-09-01T14:26:58;26.19;33.08
71088;SHT31;58747;50.674;4.616;2022-09-01T14:29:23;26.14;32.49
71088;SHT31;58747;50.674;4.616;2022-09-01T14:31:49;26.14;33.90
71088;SHT31;58747;50.674;4.616;2022-09-01T14:34:16;26.25;33.50
71088;SHT31;58747;50.674;4.616;2022-09-01T14:36:43;26.24;32.60
71088;SHT31;58747;50.674;4.616;2022-09-01T14:39:09;26.32;32.80
71088;SHT31;58747;50.674;4.616;2022-09-01T14:41:34;26.22;32.53
71088;SHT31;58747;50.674;4.616;2022-09-01T14:44:00;26.18;32.57
71088;SHT31;58747;50.674;4.616;2022-09-01T14:46:27;26.16;32.23
71088;SHT31;58747;50.674;4.616;2022-09-01T14:48:55;26.29;32.68
71088;SHT31;58747;50.674;4.616;2022-09-01T14:51:28;26.24;32.06
71088;SHT31;58747;50.674;4.616;2022-09-01T14:53:54;26.31;31.75
71088;SHT31;58747;50.674;4.616;2022-09-01T14:56:20;26.18;31.50
71088;SHT31;58747;50.674;4.616;2022-09-01T14:58:47;26.12;32.37
71088;SHT31;58747;50.674;4.616;2022-09-01T15:01:16;26.08;32.21
71088;SHT31;58747;50.674;4.616;2022-09-01T15:03:43;25.99;32.43
71088;SHT31;58747;50.674;4.616;2022-09-01T15:06:12;26.01;33.32
71088;SHT31;58747;50.674;4.616;2022-09-01T15:08:38;26.04;35.15
71088;SHT31;58747;50.674;4.616;2022-09-01T15:11:10;26.16;33.20
71088;SHT31;58747;50.674;4.616;2022-09-01T15:13:37;26.08;33.11
71088;SHT31;58747;50.674;4.616;2022-09-01T15:16:03;26.01;33.00
71088;SHT31;58747;50.674;4.616;2022-09-01T15:18:29;26.01;32.36
71088;SHT31;58747;50.674;4.616;2022-09-01T15:20:54;25.84;32.83
71088;SHT31;58747;50.674;4.616;2022-09-01T15:23:22;25.85;33.25
71088;SHT31;58747;50.674;4.616;2022-09-01T15:25:50;25.80;33.43
71088;SHT31;58747;50.674;4.616;2022-09-01T15:28:16;25.77;33.87
71088;SHT31;58747;50.674;4.616;2022-09-01T15:30:42;25.82;33.07
71088;SHT31;58747;50.674;4.616;2022-09-01T15:33:09;25.77;32.54
71088;SHT31;58747;50.674;4.616;2022-09-01T15:35:35;25.78;33.16
71088;SHT31;58747;50.674;4.616;2022-09-01T15:38:00;25.77;33.98
71088;SHT31;58747;50.674;4.616;2022-09-01T15:40:26;25.81;33.01
71088;SHT31;58747;50.674;4.616;2022-09-01T15:42:52;25.82;33.95
71088;SHT31;58747;50.674;4.616;2022-09-01T15:45:20;25.84;34.52
71088;SHT31;58747;50.674;4.616;2022-09-01T15:47:46;25.75;33.47
71088;SHT31;58747;50.674;4.616;2022-09-01T15:50:20;25.81;33.57
71088;SHT31;58747;50.674;4.616;2022-09-01T15:52:51;25.68;33.81
71088;SHT31;58747;50.674;4.616;2022-09-01T15:55:19;25.73;33.63
71088;SHT31;58747;50.674;4.616;2022-09-01T15:57:45;25.78;33.61
71088;SHT31;58747;50.674;4.616;2022-09-01T16:00:11;25.70;34.43
71088;SHT31;58747;50.674;4.616;2022-09-01T16:02:37;25.64;34.06
71088;SHT31;58747;50.674;4.616;2022-09-01T16:05:02;25.68;34.21
71088;SHT31;58747;50.674;4.616;2022-09-01T16:07:29;25.68;34.70
71088;SHT31;58747;50.674;4.616;2022-09-01T16:09:55;25.67;34.33
71088;SHT31;58747;50.674;4.616;2022-09-01T16:12:22;25.64;34.43
71088;SHT31;58747;50.674;4.616;2022-09-01T16:14:51;25.57;34.98
71088;SHT31;58747;50.674;4.616;2022-09-01T16:17:43;25.49;34.48
71088;SHT31;58747;50.674;4.616;2022-09-01T16:20:23;25.41;34.66
71088;SHT31;58747;50.674;4.616;2022-09-01T16:22:57;25.43;34.83
71088;SHT31;58747;50.674;4.616;2022-09-01T16:25:30;25.43;35.75
71088;SHT31;58747;50.674;4.616;2022-09-01T16:27:58;25.39;35.37
71088;SHT31;58747;50.674;4.616;2022-09-01T16:30:27;25.33;35.18
71088;SHT31;58747;50.674;4.616;2022-09-01T16:32:56;25.29;35.14
71088;SHT31;58747;50.674;4.616;2022-09-01T16:35:39;25.15;36.10
71088;SHT31;58747;50.674;4.616;2022-09-01T16:38:29;25.20;34.72
71088;SHT31;58747;50.674;4.616;2022-09-01T16:41:01;25.13;34.74
71088;SHT31;58747;50.674;4.616;2022-09-01T16:44:05;25.02;35.27
71088;SHT31;58747;50.674;4.616;2022-09-01T16:46:48;25.00;35.33
71088;SHT31;58747;50.674;4.616;2022-09-01T16:49:38;25.02;34.96
71088;SHT31;58747;50.674;4.616;2022-09-01T16:54:45;24.89;35.69
71088;SHT31;58747;50.674;4.616;2022-09-01T16:59:54;24.82;36.50
71088;SHT31;58747;50.674;4.616;2022-09-01T17:08:10;24.75;37.23
71088;SHT31;58747;50.674;4.616;2022-09-01T17:10:42;24.69;36.65
71088;SHT31;58747;50.674;4.616;2022-09-01T17:13:35;24.55;36.78
71088;SHT31;58747;50.674;4.616;2022-09-01T17:16:20;24.45;37.47